Time;durP1;ratioP1;P1;durP2;ratioP2;P2;SDS_P1;SDS_P2;PMS_P1;PMS_P2;Temp;Humidity;BMP_temperature;BMP_pressure;BME280_temperature;BME280_humidity;BME280_pressure;Samples;Min_cycle;Max_cycle;Signal;HPM_P1;HPM_P2
2023/06/14 06:24:27;;;;;;;24.70;22.88;;;;;;;20.54;49.20;100318.28;4738693;27;105832;-74
2023/06/14 06:26:52;;;;;;;24.75;22.75;;;;;;;20.99;48.13;100321.03;4991872;28;98675;-74
2023/06/14 06:29:18;;;;;;;23.45;21.70;;;;;;;21.99;46.22;100308.63;4987519;28;97813;-74
2023/06/14 06:31:45;;;;;;;24.45;22.60;;;;;;;22.70;44.92;100313.47;4994546;28;97322;-75
2023/06/14 06:34:10;;;;;;;24.50;22.55;;;;;;;21.57;46.64;100318.28;4986308;28;99048;-74
2023/06/14 06:36:36;;;;;;;25.20;23.20;;;;;;;20.93;47.83;100324.19;4998470;28;98543;-74
2023/06/14 06:39:08;;;;;;;26.55;24.13;;;;;;;20.74;48.67;100324.72;4996507;28;96636;-74
2023/06/14 06:41:36;;;;;;;23.77;21.77;;;;;;;21.82;46.90;100319.84;4993865;28;97315;-74
2023/06/14 06:44:02;;;;;;;25.30;23.08;;;;;;;23.61;43.07;100317.19;4998947;28;98730;-73
2023/06/14 06:46:28;;;;;;;27.73;25.63;;;;;;;29.83;33.70;100301.44;4976624;28;100637;-73
2023/06/14 06:48:54;;;;;;;28.95;21.60;;;;;;;34.47;27.82;100299.28;5001879;28;96839;-74
2023/06/14 06:51:20;;;;;;;25.33;23.42;;;;;;;30.58;31.81;100291.81;4996592;28;97059;-74
2023/06/14 06:53:52;;;;;;;28.27;25.70;;;;;;;26.42;36.96;100313.03;4998524;28;98583;-74
2023/06/14 06:56:19;;;;;;;28.00;25.50;;;;;;;24.24;40.67;100324.97;4992937;28;98502;-74
2023/06/14 06:58:45;;;;;;;26.35;23.83;;;;;;;23.14;43.04;100332.94;4992820;28;96805;-73
2023/06/14 07:01:11;;;;;;;27.23;25.10;;;;;;;22.47;44.31;100329.63;4993850;28;96899;-74
2023/06/14 07:03:37;;;;;;;27.50;25.10;;;;;;;21.84;45.82;100329.41;4992430;28;98747;-73
2023/06/14 07:06:02;;;;;;;28.77;25.90;;;;;;;21.33;46.75;100343.28;4992635;28;98233;-73
2023/06/14 07:08:28;;;;;;;27.98;25.38;;;;;;;21.98;45.33;100325.63;4993584;28;96840;-73
2023/06/14 07:10:54;;;;;;;26.77;24.60;;;;;;;25.35;40.16;100331.66;4987173;28;97933;-73
2023/06/14 07:13:20;;;;;;;26.92;24.73;;;;;;;27.86;36.04;100335.03;4999937;28;99897;-74
2023/06/14 07:15:45;;;;;;;26.30;24.02;;;;;;;29.15;33.87;100323.66;4989224;28;98861;-74
2023/06/14 07:18:11;;;;;;;25.10;22.85;;;;;;;26.79;37.35;100333.53;5009887;28;97239;-74
2023/06/14 07:20:38;;;;;;;26.23;24.00;;;;;;;25.96;38.89;100328.38;4991521;28;98160;-74
2023/06/14 07:23:03;;;;;;;25.85;23.83;;;;;;;31.48;31.27;100321.56;4974464;28;99081;-74
2023/06/14 07:25:29;;;;;;;26.85;24.65;;;;;;;34.46;28.08;100321.28;5003409;28;99002;-74
2023/06/14 07:31:16;;;;;;;25.73;23.63;;;;;;;32.29;29.23;100313.34;5010759;28;96990;-75
2023/06/14 07:33:42;;;;;;;25.83;23.90;;;;;;;29.60;33.23;100308.63;5010730;28;98980;-75
2023/06/14 07:36:08;;;;;;;26.23;24.23;;;;;;;35.11;27.04;100305.13;5024544;27;98835;-73
2023/06/14 07:38:33;;;;;;;26.02;24.08;;;;;;;35.83;25.47;100297.75;5019070;28;97222;-72
2023/06/14 07:41:00;;;;;;;26.42;24.33;;;;;;;35.85;25.80;100308.47;5014366;28;96839;-72
2023/06/14 07:43:25;;;;;;;27.10;25.10;;;;;;;33.75;27.24;100314.38;5006960;28;99075;-73
2023/06/14 07:45:51;;;;;;;26.60;24.55;;;;;;;30.34;31.77;100319.91;5000769;28;101976;-73
2023/06/14 07:48:16;;;;;;;25.70;23.75;;;;;;;29.87;32.60;100312.75;5000980;28;97273;-73
2023/06/14 07:50:42;;;;;;;26.20;24.25;;;;;;;29.06;33.68;100321.00;5006931;28;97941;-73
2023/06/14 07:53:08;;;;;;;27.67;25.58;;;;;;;28.17;34.45;100327.19;5004454;28;98916;-73
2023/06/14 07:55:36;;;;;;;25.63;23.52;;;;;;;27.43;35.31;100318.84;5007053;28;98592;-73
2023/06/14 07:58:03;;;;;;;25.48;23.70;;;;;;;26.24;37.28;100323.81;5005511;28;97790;-74
2023/06/14 08:00:28;;;;;;;26.73;24.63;;;;;;;25.77;38.53;100331.16;5007187;28;99288;-74
2023/06/14 08:02:58;;;;;;;28.63;25.77;;;;;;;26.34;37.72;100332.63;5013165;28;98637;-74
2023/06/14 08:05:25;;;;;;;25.90;23.92;;;;;;;25.41;39.09;100331.06;5009783;28;98533;-74
2023/06/14 08:07:51;;;;;;;28.65;26.50;;;;;;;24.44;41.09;100336.59;5005804;28;96901;-74
2023/06/14 08:10:17;;;;;;;26.33;24.08;;;;;;;23.52;41.90;100329.56;5007238;28;97311;-74
2023/06/14 08:12:43;;;;;;;24.40;22.38;;;;;;;23.87;41.29;100330.97;4998430;28;99144;-74
2023/06/14 08:15:09;;;;;;;24.52;22.63;;;;;;;26.29;37.44;100331.41;5013806;28;98459;-74
2023/06/14 08:17:35;;;;;;;24.95;23.05;;;;;;;28.72;33.73;100325.72;5018496;28;96859;-73
2023/06/14 08:20:00;;;;;;;22.40;20.83;;;;;;;27.53;35.34;100326.78;5015231;28;96872;-74
2023/06/14 08:22:27;;;;;;;24.70;22.98;;;;;;;26.94;36.21;100323.91;5024176;28;98780;-74
2023/06/14 08:24:54;;;;;;;24.70;22.88;;;;;;;31.04;30.29;100310.66;5023842;28;98816;-74
2023/06/14 08:27:20;;;;;;;21.77;20.30;;;;;;;28.49;34.30;100318.31;5014817;28;96879;-74
2023/06/14 08:29:46;;;;;;;25.00;23.25;;;;;;;26.70;36.52;100319.16;5014772;28;96825;-73
2023/06/14 08:32:12;;;;;;;24.58;22.45;;;;;;;26.28;37.06;100327.03;5017497;28;98790;-74
2023/06/14 08:34:37;;;;;;;24.10;22.08;;;;;;;25.43;38.71;100321.00;5011110;28;98271;-74
2023/06/14 08:37:03;;;;;;;24.10;22.30;;;;;;;24.75;40.32;100329.22;5015196;28;96973;-73
2023/06/14 08:39:29;;;;;;;24.38;22.45;;;;;;;24.13;41.63;100337.50;5016734;28;96931;-74
2023/06/14 08:41:54;;;;;;;25.27;23.38;;;;;;;23.67;42.33;100330.88;5013655;28;99409;-73
2023/06/14 08:44:20;;;;;;;24.40;22.23;;;;;;;23.39;42.95;100332.50;5013610;28;98862;-73
2023/06/14 08:46:47;;;;;;;25.90;23.83;;;;;;;23.22;43.52;100331.28;5011806;28;97339;-74
2023/06/14 08:49:14;;;;;;;26.10;24.10;;;;;;;22.99;43.71;100337.78;4997002;28;97530;-74
2023/06/14 08:51:40;;;;;;;23.90;22.15;;;;;;;23.40;42.75;100334.19;4991268;28;98859;-74
2023/06/14 08:54:06;;;;;;;22.85;20.88;;;;;;;24.28;41.41;100332.59;5013485;28;98417;-74
2023/06/14 08:56:33;;;;;;;24.00;22.15;;;;;;;25.39;39.94;100325.81;5009339;28;98013;-74
2023/06/14 08:59:03;;;;;;;23.70;21.65;;;;;;;26.27;38.92;100334.25;4977271;28;96939;-74
2023/06/14 09:01:34;;;;;;;23.83;21.77;;;;;;;26.73;38.40;100321.53;5013214;28;98700;-74
2023/06/14 09:03:59;;;;;;;25.80;23.63;;;;;;;26.49;39.01;100332.09;5010404;28;98538;-74
2023/06/14 09:06:27;;;;;;;25.65;23.70;;;;;;;25.53;39.86;100337.91;5013799;28;96983;-74
2023/06/14 09:08:56;;;;;;;25.73;23.73;;;;;;;24.79;41.05;100336.84;4997577;28;97397;-74
2023/06/14 09:11:21;;;;;;;26.00;23.58;;;;;;;24.20;42.09;100339.63;5013275;28;98830;-74
2023/06/14 09:13:49;;;;;;;24.20;22.33;;;;;;;23.57;42.86;100339.91;5014804;28;97273;-74
2023/06/14 09:16:15;;;;;;;26.50;24.10;;;;;;;23.08;43.91;100333.47;5013983;28;96828;-74
2023/06/14 09:18:47;;;;;;;25.63;23.63;;;;;;;22.57;44.63;100329.69;5014806;28;98054;-74
2023/06/14 09:21:14;;;;;;;26.00;23.90;;;;;;;22.68;44.43;100332.31;5013456;28;98774;-74
2023/06/14 09:23:45;;;;;;;23.80;21.90;;;;;;;22.88;43.96;100335.13;5014422;28;98383;-74
2023/06/14 09:26:15;;;;;;;25.35;23.38;;;;;;;22.42;45.17;100331.81;5014999;28;97347;-74
2023/06/14 09:28:45;;;;;;;24.42;22.63;;;;;;;22.29;45.60;100332.00;5011841;28;97952;-74
2023/06/14 09:31:15;;;;;;;25.40;22.77;;;;;;;21.74;46.05;100330.31;5012539;28;99199;-74
2023/06/14 09:33:47;;;;;;;23.25;21.55;;;;;;;21.67;45.80;100335.25;5018551;28;98194;-73
2023/06/14 09:36:21;;;;;;;23.95;21.77;;;;;;;21.65;46.38;100335.41;4990976;28;98400;-74
2023/06/14 09:38:53;;;;;;;22.40;20.60;;;;;;;21.65;46.40;100326.56;5012582;28;97154;-74
2023/06/14 09:41:19;;;;;;;22.17;20.45;;;;;;;21.67;46.36;100329.94;5012721;28;98626;-74
2023/06/14 09:43:46;;;;;;;24.55;22.33;;;;;;;21.67;46.87;100332.59;5016772;28;98697;-74
2023/06/14 09:46:12;;;;;;;22.70;20.88;;;;;;;21.64;46.74;100333.72;4995794;28;97956;-74
2023/06/14 09:48:42;;;;;;;23.63;21.55;;;;;;;21.31;46.78;100339.88;5010771;28;97359;-74
2023/06/14 09:51:10;;;;;;;23.20;21.23;;;;;;;21.02;47.33;100326.97;4995255;28;98797;-74
2023/06/14 09:53:36;;;;;;;22.55;20.63;;;;;;;21.30;47.01;100332.84;4999820;28;98851;-74
2023/06/14 09:56:02;;;;;;;22.10;20.17;;;;;;;21.14;47.43;100329.66;5013713;28;96949;-74
2023/06/14 09:58:28;;;;;;;23.60;21.50;;;;;;;21.28;47.77;100337.44;5000362;28;97275;-74
2023/06/14 10:00:54;;;;;;;22.48;20.35;;;;;;;21.58;47.30;100338.69;4993621;28;97700;-74
2023/06/14 10:03:29;;;;;;;20.85;19.35;;;;;;;21.41;48.32;100342.69;5010134;28;98488;-74
2023/06/14 10:05:55;;;;;;;22.27;20.30;;;;;;;21.25;48.52;100341.19;5015522;28;96797;-73
2023/06/14 10:08:26;;;;;;;22.85;20.55;;;;;;;21.55;48.86;100346.94;5017449;28;96879;-74
2023/06/14 10:10:52;;;;;;;22.95;20.98;;;;;;;21.92;48.67;100350.19;5021881;28;98703;-74
2023/06/14 10:13:17;;;;;;;21.75;19.95;;;;;;;22.12;48.28;100341.38;5020425;28;98634;-74
2023/06/14 10:15:55;;;;;;;22.88;20.88;;;;;;;22.50;48.25;100347.25;4998327;28;97399;-74
2023/06/14 10:18:40;;;;;;;22.02;20.27;;;;;;;22.66;48.14;100347.66;5013555;28;97115;-75
2023/06/14 10:21:15;;;;;;;21.45;19.92;;;;;;;22.51;47.45;100355.13;5017260;28;98994;-74
2023/06/14 10:23:42;;;;;;;21.42;19.92;;;;;;;22.63;47.23;100349.72;5000410;28;98147;-74
2023/06/14 10:26:08;;;;;;;23.67;20.45;;;;;;;22.81;46.75;100354.38;5023079;28;96919;-74
2023/06/14 10:28:37;;;;;;;20.85;18.92;;;;;;;22.97;46.39;100340.56;5024380;28;97035;-74
2023/06/14 10:31:10;;;;;;;22.25;20.33;;;;;;;23.31;45.93;100350.22;5009276;28;98631;-74
2023/06/14 10:33:57;;;;;;;20.83;19.08;;;;;;;23.38;44.73;100338.81;5009733;28;98379;-74
2023/06/14 10:36:22;;;;;;;22.33;20.25;;;;;;;23.47;44.30;100342.50;5006477;28;96808;-74
2023/06/14 10:39:04;;;;;;;21.85;20.33;;;;;;;23.58;43.87;100339.75;5013494;28;97272;-74
2023/06/14 10:41:31;;;;;;;20.80;19.25;;;;;;;23.37;43.73;100334.44;5003845;28;99236;-74
2023/06/14 10:44:32;;;;;;;22.15;19.90;;;;;;;23.14;43.73;100336.44;5007258;28;98340;-74
2023/06/14 10:47:00;;;;;;;23.80;19.92;;;;;;;23.02;44.39;100342.88;5013627;28;97600;-75
2023/06/14 10:49:41;;;;;;;20.98;19.10;;;;;;;22.67;44.94;100335.97;5003383;28;96938;-74
2023/06/14 10:52:16;;;;;;;21.77;19.90;;;;;;;22.65;45.03;100335.25;4988255;28;99165;-75
2023/06/14 10:55:05;;;;;;;22.98;21.27;;;;;;;22.49;45.56;100334.84;4993719;28;98332;-74
2023/06/14 10:57:34;;;;;;;22.90;20.77;;;;;;;22.26;46.00;100334.09;5008526;28;97925;-74
2023/06/14 11:00:00;;;;;;;25.75;21.25;;;;;;;22.06;46.19;100333.88;5011694;28;97886;-74
2023/06/14 11:02:57;;;;;;;22.60;20.33;;;;;;;22.04;46.41;100332.28;5015792;28;98697;-74
2023/06/14 11:05:27;;;;;;;23.45;21.05;;;;;;;22.00;45.76;100331.69;5007731;28;98671;-74
2023/06/14 11:08:07;;;;;;;22.50;20.52;;;;;;;21.97;45.17;100326.63;5013005;28;96978;-74
2023/06/14 11:10:40;;;;;;;19.27;17.83;;;;;;;22.06;44.82;100322.34;5015703;28;97198;-74
2023/06/14 11:13:07;;;;;;;20.20;18.58;;;;;;;21.52;45.50;100321.31;5018520;28;99018;-74
2023/06/14 11:15:34;;;;;;;20.80;19.05;;;;;;;21.72;45.29;100319.72;5016398;28;98217;-74
2023/06/14 11:18:04;;;;;;;18.83;17.65;;;;;;;21.77;45.38;100324.72;5018306;28;96958;-74
2023/06/14 11:20:35;;;;;;;20.20;18.45;;;;;;;21.93;44.75;100317.13;5019987;28;96849;-74
2023/06/14 11:23:01;;;;;;;20.40;18.83;;;;;;;21.89;44.94;100311.19;5016227;28;98799;-74
2023/06/14 11:25:28;;;;;;;20.60;19.00;;;;;;;21.85;44.76;100316.94;5011024;28;97558;-80
2023/06/14 11:27:53;;;;;;;19.05;17.55;;;;;;;21.87;44.93;100315.81;5016543;28;96673;-74
2023/06/14 11:30:19;;;;;;;19.88;18.38;;;;;;;21.89;44.73;100308.53;5026634;28;97005;-74
2023/06/14 11:32:48;;;;;;;22.33;19.42;;;;;;;21.90;45.45;100310.25;5021002;28;99073;-74
2023/06/14 11:35:15;;;;;;;19.65;18.27;;;;;;;22.01;46.02;100317.34;5017013;28;98602;-74
2023/06/14 11:37:41;;;;;;;21.98;19.83;;;;;;;22.25;45.77;100322.56;5016164;28;97948;-75
2023/06/14 11:40:09;;;;;;;21.52;19.38;;;;;;;22.31;47.11;100321.16;5016973;28;97195;-74
2023/06/14 11:42:39;;;;;;;19.90;18.40;;;;;;;22.43;47.23;100311.28;4997627;28;98857;-75
2023/06/14 11:45:09;;;;;;;21.13;19.43;;;;;;;22.63;47.89;100314.94;5016358;28;98621;-74
2023/06/14 11:47:39;;;;;;;21.42;19.77;;;;;;;22.73;46.83;100319.41;5007312;28;97033;-75
2023/06/14 11:50:08;;;;;;;20.20;18.45;;;;;;;22.95;46.35;100309.56;5018357;28;98297;-75
2023/06/14 11:52:35;;;;;;;20.52;19.13;;;;;;;22.81;46.88;100316.94;5013898;28;99229;-75
2023/06/14 11:55:03;;;;;;;21.83;19.90;;;;;;;22.92;46.43;100308.00;5023091;28;99442;-74
2023/06/14 11:57:28;;;;;;;21.48;19.80;;;;;;;22.89;44.99;100305.53;5020071;28;96801;-74
2023/06/14 11:59:55;;;;;;;20.23;18.80;;;;;;;22.93;45.16;100295.44;5021557;28;96991;-74
2023/06/14 12:02:21;;;;;;;21.65;20.15;;;;;;;23.10;45.23;100288.69;4999727;28;98573;-74
2023/06/14 12:04:48;;;;;;;20.80;19.13;;;;;;;23.31;44.22;100296.66;5015809;28;98554;-74
2023/06/14 12:07:17;;;;;;;20.50;18.75;;;;;;;23.42;45.03;100294.72;5016942;28;96712;-75
2023/06/14 12:10:05;;;;;;;21.08;19.05;;;;;;;23.31;44.64;100296.66;5016792;28;96796;-75
2023/06/14 12:12:36;;;;;;;21.43;19.30;;;;;;;23.46;45.49;100289.94;5014167;28;99266;-75
2023/06/14 12:15:03;;;;;;;20.35;18.85;;;;;;;23.17;45.04;100282.63;5019872;28;98484;-74
2023/06/14 12:17:32;;;;;;;20.25;18.63;;;;;;;23.02;44.84;100282.13;5016945;28;97504;-74
2023/06/14 12:19:58;;;;;;;20.80;18.83;;;;;;;23.05;44.32;100281.88;5016474;28;97034;-74
2023/06/14 12:22:23;;;;;;;20.98;18.88;;;;;;;23.25;44.54;100276.63;5006833;28;98792;-75
2023/06/14 12:24:49;;;;;;;20.10;18.45;;;;;;;23.06;45.11;100280.03;5014151;28;98775;-75
2023/06/14 12:27:15;;;;;;;19.25;17.80;;;;;;;22.60;43.72;100279.47;5015076;28;96694;-75
2023/06/14 12:29:45;;;;;;;21.50;19.63;;;;;;;22.54;43.73;100293.38;5014658;28;97252;-75
2023/06/14 12:32:11;;;;;;;19.77;18.25;;;;;;;22.13;44.77;100276.25;5010797;28;98800;-75
2023/06/14 12:34:36;;;;;;;19.27;17.83;;;;;;;22.30;44.83;100280.22;5008227;28;98796;-74
2023/06/14 12:37:03;;;;;;;19.45;17.95;;;;;;;21.97;45.09;100286.53;5014632;28;96932;-75
2023/06/14 12:39:31;;;;;;;19.63;18.38;;;;;;;21.82;45.63;100275.28;5014632;28;97006;-74
2023/06/14 12:41:57;;;;;;;19.10;17.48;;;;;;;21.95;45.94;100282.28;5024640;28;98802;-74
2023/06/14 12:44:23;;;;;;;18.73;17.05;;;;;;;21.90;46.28;100278.19;5023786;28;98409;-74
2023/06/14 12:46:51;;;;;;;18.80;17.10;;;;;;;22.08;45.86;100277.63;5021919;28;96915;-75
2023/06/14 12:49:16;;;;;;;19.38;17.65;;;;;;;21.97;46.14;100269.66;4994079;28;98387;-75
2023/06/14 12:51:42;;;;;;;18.95;17.58;;;;;;;22.07;46.11;100274.09;5024553;28;99080;-75
2023/06/14 12:54:08;;;;;;;19.23;17.50;;;;;;;21.91;46.75;100282.53;5013920;28;98369;-75
2023/06/14 12:56:33;;;;;;;21.35;19.40;;;;;;;21.56;47.43;100274.72;4996675;28;97279;-74
2023/06/14 12:58:59;;;;;;;19.75;18.05;;;;;;;21.64;47.57;100277.63;5013959;28;96825;-74
2023/06/14 13:01:24;;;;;;;19.45;17.85;;;;;;;21.49;47.53;100284.19;5013726;28;98948;-74
2023/06/14 13:03:51;;;;;;;19.95;17.92;;;;;;;21.64;47.01;100276.75;5013607;28;97421;-74
2023/06/14 13:06:17;;;;;;;22.15;17.98;;;;;;;21.84;46.32;100267.13;5014531;28;97179;-74
2023/06/14 13:08:43;;;;;;;19.65;17.77;;;;;;;21.89;45.70;100267.59;5013513;28;96882;-74
2023/06/14 13:11:08;;;;;;;19.65;18.15;;;;;;;21.98;45.46;100271.34;5013784;28;98715;-75
2023/06/14 13:13:34;;;;;;;20.73;19.13;;;;;;;21.97;45.41;100273.16;5013651;28;98672;-75
2023/06/14 13:16:00;;;;;;;20.48;18.70;;;;;;;22.33;45.20;100263.06;5016072;28;96890;-75
2023/06/14 13:18:26;;;;;;;20.55;18.95;;;;;;;22.43;45.34;100269.38;5020804;28;96990;-75
2023/06/14 13:20:51;;;;;;;21.17;19.38;;;;;;;22.58;45.53;100273.41;5013330;28;98773;-74
2023/06/14 13:23:17;;;;;;;21.85;19.60;;;;;;;22.44;45.67;100279.06;5013468;28;98626;-74
2023/06/14 13:25:43;;;;;;;20.55;18.95;;;;;;;22.21;45.65;100272.97;5020457;28;96929;-75
2023/06/14 13:28:09;;;;;;;21.23;19.33;;;;;;;22.17;45.12;100274.22;5013868;28;96879;-74
2023/06/14 13:30:34;;;;;;;20.52;18.85;;;;;;;22.04;45.99;100278.84;5013459;28;99121;-75
2023/06/14 13:33:00;;;;;;;19.92;18.33;;;;;;;22.17;45.50;100273.34;5012967;28;98720;-75
2023/06/14 13:35:26;;;;;;;19.50;17.95;;;;;;;22.10;45.71;100273.00;5021445;28;97425;-75
2023/06/14 13:37:51;;;;;;;20.88;19.05;;;;;;;22.26;45.68;100273.44;5013355;28;97212;-74
2023/06/14 13:40:17;;;;;;;20.13;18.35;;;;;;;22.45;45.52;100272.72;5013521;28;98636;-74
2023/06/14 13:42:43;;;;;;;19.52;18.02;;;;;;;22.53;45.96;100274.78;5012710;28;98366;-75
2023/06/14 13:45:11;;;;;;;20.60;18.98;;;;;;;22.21;46.81;100274.81;5013873;28;96775;-75
2023/06/14 13:47:36;;;;;;;20.30;18.83;;;;;;;22.22;46.74;100274.66;5013118;28;96833;-74
2023/06/14 13:50:03;;;;;;;20.30;18.35;;;;;;;22.35;46.70;100267.31;5013371;28;98593;-75
2023/06/14 13:52:29;;;;;;;19.10;17.48;;;;;;;22.55;45.85;100271.00;5012859;28;98675;-75
2023/06/14 13:54:54;;;;;;;20.10;18.85;;;;;;;22.77;45.65;100264.63;5013829;28;96670;-70
2023/06/14 13:57:20;;;;;;;19.42;17.80;;;;;;;22.90;45.48;100274.31;5013503;28;96956;-70
2023/06/14 13:59:45;;;;;;;19.33;18.00;;;;;;;22.94;44.78;100265.00;5012816;28;98799;-70
2023/06/14 14:02:12;;;;;;;19.73;18.20;;;;;;;23.22;44.41;100271.53;5013437;28;98317;-70
2023/06/14 14:04:37;;;;;;;19.50;17.90;;;;;;;23.36;44.52;100267.63;5013260;28;97245;-70
2023/06/14 14:07:05;;;;;;;19.73;18.38;;;;;;;23.50;44.13;100269.91;5013429;28;96905;-70
2023/06/14 14:09:31;;;;;;;19.67;18.27;;;;;;;23.50;43.91;100262.75;4994126;28;99009;-70
2023/06/14 14:11:58;;;;;;;20.77;19.27;;;;;;;23.41;43.80;100258.19;5013015;28;98643;-70
2023/06/14 14:14:23;;;;;;;19.90;18.70;;;;;;;23.31;43.93;100256.47;5013522;28;96727;-70
2023/06/14 14:16:51;;;;;;;19.67;18.42;;;;;;;23.21;44.40;100269.81;5027309;28;96981;-70
2023/06/14 14:19:18;;;;;;;20.50;18.90;;;;;;;23.08;44.41;100271.88;4994587;28;98739;-70
2023/06/14 14:21:44;;;;;;;20.95;19.38;;;;;;;22.93;44.75;100274.03;5011581;28;98589;-70
2023/06/14 14:24:10;;;;;;;21.98;20.05;;;;;;;22.36;45.21;100274.34;5012910;28;96853;-69
2023/06/14 14:26:36;;;;;;;21.05;19.25;;;;;;;22.19;45.63;100272.25;5014044;28;98214;-70
2023/06/14 14:29:02;;;;;;;21.40;20.00;;;;;;;21.93;45.45;100269.91;5011792;28;99018;-70
2023/06/14 14:31:28;;;;;;;21.55;19.95;;;;;;;22.00;46.43;100277.41;5012601;28;98257;-70
2023/06/14 14:33:53;;;;;;;20.73;19.23;;;;;;;22.19;45.97;100266.91;5012540;28;96644;-70
2023/06/14 14:36:19;;;;;;;20.33;18.45;;;;;;;22.20;46.76;100271.28;5013215;28;96851;-70
2023/06/14 14:38:45;;;;;;;21.27;19.58;;;;;;;22.05;46.50;100265.38;5012471;28;99253;-69
2023/06/14 14:41:10;;;;;;;22.75;21.13;;;;;;;21.96;46.89;100271.44;5021948;28;98462;-70
2023/06/14 14:43:36;;;;;;;18.25;17.10;;;;;;;21.85;46.29;100282.19;5012829;28;96744;-70
2023/06/14 14:46:01;;;;;;;21.02;19.42;;;;;;;21.71;46.39;100277.97;5012927;28;97555;-70
2023/06/14 14:48:27;;;;;;;20.80;19.20;;;;;;;21.85;46.28;100290.22;5012099;28;99332;-70
2023/06/14 14:50:52;;;;;;;20.30;18.90;;;;;;;21.43;46.07;100288.19;5023463;28;98267;-78
2023/06/14 14:53:18;;;;;;;20.63;19.10;;;;;;;21.30;46.11;100295.47;5012558;28;96819;-79
2023/06/14 14:55:44;;;;;;;20.48;19.00;;;;;;;21.38;46.33;100290.41;5012711;28;96814;-78
2023/06/14 14:58:09;;;;;;;20.30;18.92;;;;;;;21.24;46.77;100296.78;5011452;28;98870;-78
2023/06/14 15:00:35;;;;;;;21.00;19.48;;;;;;;20.89;47.51;100293.38;5012122;28;98879;-78
2023/06/14 15:03:00;;;;;;;20.67;19.38;;;;;;;20.69;47.93;100294.91;5012092;28;97291;-78
2023/06/14 15:05:26;;;;;;;20.52;18.90;;;;;;;20.81;47.85;100288.63;5012952;28;96876;-78
2023/06/14 15:07:52;;;;;;;21.20;19.70;;;;;;;20.67;48.55;100288.84;5011472;28;99351;-77
2023/06/14 15:10:17;;;;;;;21.23;19.60;;;;;;;20.58;49.13;100296.56;5011902;28;98496;-78
2023/06/14 15:12:43;;;;;;;20.65;18.95;;;;;;;20.73;48.87;100283.88;5011548;28;97222;-78
2023/06/14 15:15:09;;;;;;;22.02;20.25;;;;;;;20.63;50.19;100290.06;5012956;28;96843;-78
2023/06/14 15:17:35;;;;;;;21.50;19.85;;;;;;;20.22;52.45;100302.84;5011493;28;99086;-78
2023/06/14 15:20:00;;;;;;;22.10;20.13;;;;;;;20.03;53.20;100290.00;5011841;28;98883;-78
2023/06/14 15:22:26;;;;;;;22.38;20.65;;;;;;;19.83;54.18;100296.81;5011911;28;97019;-78
2023/06/14 15:24:52;;;;;;;21.20;19.58;;;;;;;19.73;54.81;100295.78;5011810;28;97180;-80
2023/06/14 15:27:17;;;;;;;22.30;20.80;;;;;;;19.64;54.82;100285.78;5011859;28;99405;-80
2023/06/14 15:29:44;;;;;;;21.75;19.75;;;;;;;19.88;54.64;100300.00;4993350;28;98880;-80
2023/06/14 15:32:09;;;;;;;21.73;20.10;;;;;;;19.96;54.95;100306.59;5012356;28;97146;-80
2023/06/14 15:34:35;;;;;;;22.05;20.17;;;;;;;19.89;55.27;100303.50;5011539;28;97402;-80
2023/06/14 15:37:02;;;;;;;22.60;20.65;;;;;;;19.98;55.25;100301.97;5011574;28;98477;-80
2023/06/14 15:39:30;;;;;;;22.48;20.48;;;;;;;19.98;55.02;100299.31;4993226;28;98564;-80
2023/06/14 15:41:55;;;;;;;22.85;21.05;;;;;;;20.03;54.71;100307.81;4994040;28;97416;-80
2023/06/14 15:44:21;;;;;;;22.83;20.48;;;;;;;19.99;54.61;100293.03;5012117;28;96926;-80
2023/06/14 15:46:46;;;;;;;22.02;20.52;;;;;;;20.23;54.05;100298.34;5011700;28;99014;-80
2023/06/14 15:49:13;;;;;;;22.48;20.67;;;;;;;20.43;53.47;100294.19;5013745;28;98694;-80
2023/06/14 15:51:39;;;;;;;23.17;21.23;;;;;;;20.48;53.52;100300.03;5012148;28;96809;-80
2023/06/14 15:54:05;;;;;;;21.80;20.00;;;;;;;20.01;53.98;100291.97;5011942;28;96846;-80
2023/06/14 15:56:31;;;;;;;23.58;21.77;;;;;;;20.12;53.71;100291.16;5011907;28;98035;-80
2023/06/14 15:58:57;;;;;;;22.52;21.02;;;;;;;20.07;53.71;100290.63;5013171;28;98698;-80
2023/06/14 16:01:23;;;;;;;22.80;20.92;;;;;;;20.03;53.88;100275.84;5014351;28;98061;-80
2023/06/14 16:03:49;;;;;;;24.02;21.63;;;;;;;19.97;53.65;100281.63;5016131;28;96915;-80
2023/06/14 16:06:15;;;;;;;24.42;21.90;;;;;;;19.73;54.56;100279.81;5012719;28;98696;-81
2023/06/14 16:08:40;;;;;;;23.25;21.33;;;;;;;19.97;54.17;100286.97;5011727;28;98477;-80
2023/06/14 16:11:06;;;;;;;22.80;21.00;;;;;;;19.98;54.18;100281.50;5022747;28;97382;-81
2023/06/14 16:13:31;;;;;;;22.85;21.17;;;;;;;20.02;53.83;100277.66;5009592;28;97600;-80
2023/06/14 16:15:57;;;;;;;23.27;21.33;;;;;;;20.39;53.04;100298.03;5013313;28;98813;-80
2023/06/14 16:18:23;;;;;;;23.33;21.45;;;;;;;20.22;53.71;100294.00;5012894;28;98399;-80
2023/06/14 16:20:49;;;;;;;22.20;20.35;;;;;;;20.31;53.24;100286.16;5012018;28;96915;-80
2023/06/14 16:23:14;;;;;;;23.20;21.15;;;;;;;20.32;53.17;100295.00;5012680;28;97308;-80
2023/06/14 16:25:40;;;;;;;22.67;21.05;;;;;;;20.07;53.54;100285.31;5017945;28;98405;-80
2023/06/14 16:28:05;;;;;;;22.65;20.98;;;;;;;20.28;53.01;100298.88;5012649;28;98332;-80
2023/06/14 16:30:31;;;;;;;22.02;20.33;;;;;;;20.33;52.78;100286.03;5012033;28;96823;-80
2023/06/14 16:32:57;;;;;;;21.35;19.95;;;;;;;20.51;52.31;100297.97;5012348;28;96888;-80
2023/06/14 16:35:23;;;;;;;22.13;20.40;;;;;;;20.38;52.13;100272.38;5017224;28;98768;-80
2023/06/14 16:37:48;;;;;;;21.27;19.73;;;;;;;20.36;52.33;100293.78;5014291;28;98364;-80
2023/06/14 16:40:13;;;;;;;22.70;20.42;;;;;;;20.19;52.52;100299.53;5005783;28;97186;-80
2023/06/14 16:42:39;;;;;;;22.45;20.70;;;;;;;19.84;52.93;100289.69;5017637;28;96994;-80
2023/06/14 16:45:06;;;;;;;22.60;20.70;;;;;;;19.89;52.72;100308.81;5017695;28;98599;-80
2023/06/14 16:47:31;;;;;;;20.20;18.65;;;;;;;19.76;52.14;100297.38;5011380;28;99329;-80
2023/06/14 16:49:57;;;;;;;22.13;20.38;;;;;;;19.81;52.03;100304.06;5016836;28;97707;-80
2023/06/14 16:52:22;;;;;;;21.05;19.45;;;;;;;19.73;51.81;100308.25;4994631;28;97805;-80
2023/06/14 16:54:48;;;;;;;21.38;19.33;;;;;;;19.69;52.22;100315.59;5012241;28;99154;-80
2023/06/14 16:57:13;;;;;;;22.52;20.65;;;;;;;19.44;52.43;100306.69;5011264;28;98718;-80
2023/06/14 16:59:39;;;;;;;22.20;20.65;;;;;;;19.54;52.29;100311.34;5011499;28;97227;-80
2023/06/14 17:02:04;;;;;;;21.38;19.63;;;;;;;19.47;52.69;100302.13;5011779;28;97441;-80
2023/06/14 17:04:30;;;;;;;21.67;19.77;;;;;;;19.53;52.83;100309.66;5011952;28;98599;-80
2023/06/14 17:06:57;;;;;;;22.13;20.52;;;;;;;19.41;53.46;100298.91;5011133;28;98950;-80
2023/06/14 17:09:22;;;;;;;22.70;20.52;;;;;;;19.58;53.20;100307.53;5011788;28;97467;-80
2023/06/14 17:11:48;;;;;;;20.98;19.27;;;;;;;19.59;53.61;100323.38;5011525;28;97124;-81
2023/06/14 17:14:14;;;;;;;21.10;19.60;;;;;;;19.49;54.00;100314.34;5004925;28;98705;-80
2023/06/14 17:16:39;;;;;;;23.00;21.25;;;;;;;19.43;54.57;100312.97;5011488;28;98796;-79
2023/06/14 17:19:05;;;;;;;22.58;20.88;;;;;;;19.32;55.09;100320.03;5011548;28;97297;-80
2023/06/14 17:21:31;;;;;;;21.33;19.73;;;;;;;19.21;55.51;100310.97;5011338;28;96841;-80
2023/06/14 17:23:57;;;;;;;22.13;20.42;;;;;;;19.12;56.17;100324.06;5010953;28;99327;-80
2023/06/14 17:26:23;;;;;;;23.30;21.33;;;;;;;19.19;56.01;100331.50;5011138;28;98740;-80
2023/06/14 17:28:49;;;;;;;22.58;20.65;;;;;;;19.39;55.37;100334.59;5011132;28;97352;-79
2023/06/14 17:31:14;;;;;;;22.10;20.67;;;;;;;19.23;55.98;100327.69;5011267;28;96868;-79
2023/06/14 17:33:40;;;;;;;23.27;21.52;;;;;;;19.38;55.72;100335.56;5014622;28;99162;-79
2023/06/14 17:36:06;;;;;;;22.98;21.35;;;;;;;19.43;55.46;100328.06;5011071;28;98517;-80